createdAt,value
2018-07-21T00:01:25.542Z,15.05
2018-07-21T00:03:52.749Z,15.03
2018-07-21T00:06:19.843Z,15.03
2018-07-21T00:08:46.939Z,14.98
2018-07-21T00:11:14.171Z,14.95
2018-07-21T00:13:41.503Z,14.99
2018-07-21T00:16:08.696Z,14.99
2018-07-21T00:18:35.887Z,14.95
2018-07-21T00:21:02.997Z,14.99
2018-07-21T00:23:30.133Z,14.99
2018-07-21T00:25:57.388Z,14.98
2018-07-21T00:28:24.584Z,14.91
2018-07-21T00:30:51.696Z,14.85
2018-07-21T00:33:18.920Z,14.82
2018-07-21T00:35:46.031Z,14.80
2018-07-21T00:38:13.166Z,14.78
2018-07-21T00:40:40.425Z,14.75
2018-07-21T00:43:07.668Z,14.71
2018-07-21T00:45:34.783Z,14.68
2018-07-21T00:48:01.948Z,14.70
2018-07-21T00:50:29.601Z,14.63
2018-07-21T00:52:56.782Z,14.61
2018-07-21T00:55:24.000Z,14.66
2018-07-21T00:57:51.144Z,14.57
2018-07-21T01:00:18.354Z,14.56
2018-07-21T01:02:45.539Z,14.56
2018-07-21T01:05:12.631Z,14.55
2018-07-21T01:07:39.768Z,14.55
2018-07-21T01:10:07.425Z,14.51
2018-07-21T01:12:34.584Z,14.49
2018-07-21T01:15:01.707Z,14.48
2018-07-21T01:17:29.294Z,14.50
2018-07-21T01:19:56.443Z,14.50
2018-07-21T01:22:23.605Z,14.47
2018-07-21T01:24:50.843Z,14.45
2018-07-21T01:27:17.953Z,14.45
2018-07-21T01:29:45.087Z,14.45
2018-07-21T01:32:12.443Z,14.42
2018-07-21T01:34:39.577Z,14.39
2018-07-21T01:37:06.724Z,14.36
2018-07-21T01:39:33.886Z,14.33
2018-07-21T01:42:01.029Z,14.29
2018-07-21T01:44:28.156Z,14.30
2018-07-21T01:46:55.421Z,14.31
2018-07-21T01:49:22.560Z,14.28
2018-07-21T01:51:49.740Z,14.26
2018-07-21T01:54:16.972Z,14.22
2018-07-21T01:56:44.076Z,14.20
2018-07-21T01:59:11.215Z,14.13
2018-07-21T02:01:38.493Z,14.15
2018-07-21T02:04:05.967Z,14.14
2018-07-21T02:06:33.122Z,14.12
2018-07-21T02:09:00.300Z,14.07
2018-07-21T02:11:27.416Z,13.96
2018-07-21T02:13:54.540Z,13.95
2018-07-21T02:16:21.755Z,13.94
2018-07-21T02:18:48.901Z,13.88
2018-07-21T02:21:16.036Z,13.83
2018-07-21T02:23:43.608Z,13.73
2018-07-21T02:26:10.738Z,13.72
2018-07-21T02:28:37.861Z,13.73
2018-07-21T02:31:05.179Z,13.69
2018-07-21T02:33:32.962Z,13.66
2018-07-21T02:36:00.072Z,13.64
2018-07-21T02:38:27.224Z,13.62
2018-07-21T02:40:54.368Z,13.57
2018-07-21T02:43:21.512Z,13.52
2018-07-21T02:45:48.669Z,13.46
2018-07-21T02:48:15.806Z,13.50
2018-07-21T02:50:42.961Z,13.48
2018-07-21T02:53:10.232Z,13.48
2018-07-21T02:55:37.340Z,13.48
2018-07-21T02:58:04.524Z,13.46
2018-07-21T03:00:31.712Z,13.49
2018-07-21T03:02:58.930Z,13.49
2018-07-21T03:05:26.028Z,13.45
2018-07-21T03:07:53.212Z,13.39
2018-07-21T03:10:20.370Z,13.39
2018-07-21T03:12:47.513Z,13.32
2018-07-21T03:15:14.704Z,13.30
2018-07-21T03:17:41.829Z,13.27
2018-07-21T03:20:08.962Z,13.25
2018-07-21T03:22:36.229Z,13.29
2018-07-21T03:25:03.416Z,13.26
2018-07-21T03:27:30.548Z,13.34
2018-07-21T03:29:57.808Z,13.32
2018-07-21T03:32:24.911Z,13.31
2018-07-21T03:34:52.079Z,13.26
2018-07-21T03:37:19.211Z,13.27
2018-07-21T03:39:46.356Z,13.29
2018-07-21T03:42:13.468Z,13.33
2018-07-21T03:44:40.635Z,13.35
2018-07-21T03:47:07.767Z,13.38
2018-07-21T03:49:34.891Z,13.35
2018-07-21T03:52:02.136Z,13.42
2018-07-21T03:54:29.285Z,13.45
2018-07-21T03:56:56.415Z,13.51
2018-07-21T03:59:23.564Z,13.56
2018-07-21T04:01:50.701Z,13.60
2018-07-21T04:04:17.867Z,13.62
2018-07-21T04:06:45.036Z,13.65
2018-07-21T04:09:12.156Z,13.70
2018-07-21T04:11:39.401Z,13.75
2018-07-21T04:14:06.748Z,13.80
2018-07-21T04:16:33.901Z,13.84
2018-07-21T04:19:01.148Z,13.89
2018-07-21T04:21:28.332Z,13.91
2018-07-21T04:23:55.456Z,13.92
2018-07-21T04:26:22.641Z,13.98
2018-07-21T04:28:49.855Z,14.03
2018-07-21T04:31:16.987Z,14.07
2018-07-21T04:33:44.103Z,14.14
2018-07-21T04:36:11.292Z,14.22
2018-07-21T04:38:38.412Z,14.31
2018-07-21T04:41:05.604Z,14.42
2018-07-21T04:43:32.895Z,14.53
2018-07-21T04:46:00.033Z,14.60
2018-07-21T04:48:27.156Z,14.70
2018-07-21T04:50:54.312Z,14.82
2018-07-21T04:53:21.446Z,14.91
2018-07-21T04:55:48.598Z,15.01
2018-07-21T04:58:15.762Z,15.09
2018-07-21T05:00:42.915Z,15.22
2018-07-21T05:03:10.037Z,15.37
2018-07-21T05:05:37.337Z,15.51
2018-07-21T05:08:04.488Z,15.64
2018-07-21T05:10:31.651Z,15.78
2018-07-21T05:12:58.821Z,15.91
2018-07-21T05:15:25.981Z,16.07
2018-07-21T05:17:53.101Z,16.23
2018-07-21T05:20:20.264Z,16.36
2018-07-21T05:22:47.384Z,16.53
2018-07-21T05:25:14.532Z,16.67
2018-07-21T05:27:41.706Z,16.78
2018-07-21T05:30:08.829Z,16.93
2018-07-21T05:32:35.945Z,17.09
2018-07-21T05:35:03.255Z,17.23
2018-07-21T05:37:31.379Z,17.38
2018-07-21T05:39:58.519Z,17.51
2018-07-21T05:42:25.688Z,17.70
2018-07-21T05:44:53.672Z,17.83
2018-07-21T05:47:20.787Z,18.03
2018-07-21T05:49:48.014Z,18.05
2018-07-21T05:52:15.127Z,18.15
2018-07-21T05:54:42.299Z,18.26
2018-07-21T05:57:09.428Z,18.43
2018-07-21T05:59:36.527Z,18.61
2018-07-21T06:02:03.671Z,18.81
2018-07-21T06:04:30.948Z,19.02
2018-07-21T06:06:58.502Z,19.14
2018-07-21T06:09:25.626Z,19.22
2018-07-21T06:11:52.809Z,19.28
2018-07-21T06:14:19.954Z,19.38
2018-07-21T06:16:47.068Z,19.48
2018-07-21T06:19:14.245Z,19.63
2018-07-21T06:21:41.389Z,19.83
2018-07-21T06:24:08.516Z,19.91
2018-07-21T06:26:35.716Z,20.11
2018-07-21T06:29:02.875Z,20.31
2018-07-21T06:31:30.040Z,20.37
2018-07-21T06:33:57.268Z,20.45
2018-07-21T06:36:24.416Z,20.68
2018-07-21T06:38:51.545Z,20.81
2018-07-21T06:41:18.703Z,20.92
2018-07-21T06:43:45.838Z,21.02
2018-07-21T06:46:13.006Z,21.13
2018-07-21T06:48:40.153Z,21.34
2018-07-21T06:51:07.298Z,21.45
2018-07-21T06:53:34.443Z,21.61
2018-07-21T06:56:01.651Z,21.61
2018-07-21T06:58:28.796Z,21.79
2018-07-21T07:00:55.923Z,21.91
2018-07-21T07:03:23.188Z,21.97
2018-07-21T07:05:50.287Z,22.05
2018-07-21T07:08:17.468Z,22.10
2018-07-21T07:10:44.752Z,22.30
2018-07-21T07:13:11.884Z,22.52
2018-07-21T07:15:38.996Z,22.59
2018-07-21T07:18:06.159Z,22.80
2018-07-21T07:20:33.284Z,22.89
2018-07-21T07:23:00.421Z,22.95
2018-07-21T07:25:27.598Z,23.11
2018-07-21T07:27:54.696Z,23.30
2018-07-21T07:30:21.839Z,23.34
2018-07-21T07:32:49.060Z,23.25
2018-07-21T07:35:16.264Z,23.33
2018-07-21T07:37:43.328Z,23.40
2018-07-21T07:40:10.554Z,23.36
2018-07-21T07:42:37.687Z,23.64
2018-07-21T07:45:05.018Z,23.65
2018-07-21T07:47:32.195Z,23.70
2018-07-21T07:49:59.343Z,23.50
2018-07-21T07:52:26.495Z,23.73
2018-07-21T07:54:53.655Z,23.87
2018-07-21T07:57:20.784Z,24.04
2018-07-21T07:59:47.912Z,24.24
2018-07-21T08:02:15.072Z,24.33
2018-07-21T08:04:42.194Z,24.37
2018-07-21T08:07:09.309Z,24.23
2018-07-21T08:09:36.632Z,24.39
2018-07-21T08:12:03.789Z,24.33
2018-07-21T08:14:30.932Z,24.51
2018-07-21T08:16:58.092Z,24.64
2018-07-21T08:19:25.267Z,24.55
2018-07-21T08:21:52.412Z,24.80
2018-07-21T08:24:19.658Z,24.70
2018-07-21T08:26:46.784Z,24.74
2018-07-21T08:29:13.911Z,24.78
2018-07-21T08:31:41.125Z,24.65
2018-07-21T08:34:08.255Z,24.91
2018-07-21T08:36:35.438Z,25.15
2018-07-21T08:39:02.880Z,25.26
2018-07-21T08:41:30.016Z,25.52
2018-07-21T08:43:57.142Z,25.33
2018-07-21T08:46:24.312Z,25.51
2018-07-21T08:48:51.443Z,25.83
2018-07-21T08:51:18.601Z,25.70
2018-07-21T08:53:45.778Z,25.74
2018-07-21T08:56:12.932Z,26.02
2018-07-21T08:58:40.072Z,26.26
2018-07-21T09:01:07.283Z,26.25
2018-07-21T09:03:34.436Z,26.40
2018-07-21T09:06:01.619Z,26.45
2018-07-21T09:08:28.899Z,26.08
2018-07-21T09:10:56.177Z,26.42
2018-07-21T09:13:23.288Z,26.72
2018-07-21T09:15:50.460Z,26.77
2018-07-21T09:18:17.636Z,27.01
2018-07-21T09:20:44.805Z,27.02
2018-07-21T09:23:11.979Z,26.50
2018-07-21T09:25:39.112Z,27.00
2018-07-21T09:28:06.253Z,27.02
2018-07-21T09:30:33.446Z,27.16
2018-07-21T09:33:00.621Z,27.18
2018-07-21T09:35:27.761Z,27.51
2018-07-21T09:37:54.992Z,27.72
2018-07-21T09:40:22.183Z,27.28
2018-07-21T09:42:49.296Z,27.65
2018-07-21T09:45:16.549Z,28.00
2018-07-21T09:47:43.707Z,27.90
2018-07-21T09:50:10.890Z,28.23
2018-07-21T09:52:38.515Z,28.45
2018-07-21T09:55:06.468Z,28.21
2018-07-21T09:57:33.617Z,28.36
2018-07-21T10:00:00.792Z,28.19
2018-07-21T10:02:27.920Z,28.04
2018-07-21T10:04:55.512Z,28.42
2018-07-21T10:07:22.774Z,28.46
2018-07-21T10:09:49.893Z,28.58
2018-07-21T10:12:17.072Z,28.67
2018-07-21T10:14:44.310Z,28.88
2018-07-21T10:17:11.465Z,29.05
2018-07-21T10:19:38.577Z,29.24
2018-07-21T10:22:05.817Z,29.19
2018-07-21T10:24:38.714Z,29.33
2018-07-21T10:27:11.482Z,29.35
2018-07-21T10:29:38.637Z,29.15
2018-07-21T10:32:06.486Z,29.65
2018-07-21T10:34:33.645Z,29.56
2018-07-21T10:37:00.784Z,29.38
2018-07-21T10:39:27.904Z,29.91
2018-07-21T10:41:55.147Z,29.81
2018-07-21T10:44:22.286Z,30.07
2018-07-21T10:46:49.396Z,30.43
2018-07-21T10:49:16.547Z,30.49
2018-07-21T10:51:43.727Z,30.70
2018-07-21T10:54:10.866Z,31.22
2018-07-21T10:56:38.028Z,31.02
2018-07-21T10:59:05.184Z,30.58
2018-07-21T11:01:32.358Z,30.60
2018-07-21T11:03:59.545Z,30.64
2018-07-21T11:06:26.679Z,29.99
2018-07-21T11:08:53.819Z,29.60
2018-07-21T11:11:21.076Z,29.86
2018-07-21T11:13:48.240Z,29.61
2018-07-21T11:16:15.378Z,29.63
2018-07-21T11:18:42.567Z,29.25
2018-07-21T11:21:09.788Z,29.39
2018-07-21T11:23:36.901Z,29.56
2018-07-21T11:26:04.197Z,30.42
2018-07-21T11:28:31.720Z,30.74
2018-07-21T11:30:58.913Z,31.13
2018-07-21T11:33:26.821Z,31.78
2018-07-21T11:35:54.193Z,31.49
2018-07-21T11:38:21.186Z,31.71
2018-07-21T11:40:48.440Z,31.50
2018-07-21T11:43:15.591Z,31.57
2018-07-21T11:45:42.752Z,31.61
2018-07-21T11:48:10.144Z,31.75
2018-07-21T11:50:37.276Z,31.94
2018-07-21T11:53:04.511Z,32.77
2018-07-21T11:55:31.715Z,33.22
2018-07-21T11:57:58.836Z,32.44
2018-07-21T12:00:25.993Z,33.06
2018-07-21T12:02:53.232Z,34.54
2018-07-21T12:05:20.484Z,34.42
2018-07-21T12:07:47.603Z,34.76
2018-07-21T12:10:14.742Z,35.55
2018-07-21T12:12:41.903Z,36.04
2018-07-21T12:15:09.163Z,36.15
2018-07-21T12:17:36.357Z,34.46
2018-07-21T12:20:03.587Z,33.78
2018-07-21T12:22:30.799Z,33.02
2018-07-21T12:24:57.983Z,32.13
2018-07-21T12:27:25.160Z,31.97
2018-07-21T12:29:52.303Z,31.77
2018-07-21T12:32:19.483Z,31.59
2018-07-21T12:34:46.627Z,31.62
2018-07-21T12:37:13.776Z,31.23
2018-07-21T12:39:40.940Z,31.23
2018-07-21T12:42:08.119Z,30.58
2018-07-21T12:44:35.296Z,31.12
2018-07-21T12:47:02.500Z,30.99
2018-07-21T12:49:29.636Z,30.78
2018-07-21T12:51:56.777Z,29.95
2018-07-21T12:54:23.943Z,29.80
2018-07-21T12:56:51.129Z,29.91
2018-07-21T12:59:18.236Z,30.27
2018-07-21T13:01:45.468Z,30.11
2018-07-21T13:04:12.607Z,29.80
2018-07-21T13:06:39.892Z,29.76
2018-07-21T13:09:08.549Z,29.77
2018-07-21T13:11:35.684Z,29.95
2018-07-21T13:14:02.881Z,30.00
2018-07-21T13:16:30.113Z,29.89
2018-07-21T13:18:57.396Z,29.96
2018-07-21T13:21:24.543Z,29.81
2018-07-21T13:23:51.716Z,29.64
2018-07-21T13:26:18.868Z,30.04
2018-07-21T13:28:46.007Z,30.28
2018-07-21T13:31:13.191Z,30.17
2018-07-21T13:33:40.325Z,30.24
2018-07-21T13:36:07.441Z,30.54
2018-07-21T13:38:34.700Z,30.81
2018-07-21T13:41:01.836Z,30.65
2018-07-21T13:43:28.969Z,31.01
2018-07-21T13:45:56.189Z,31.13
2018-07-21T13:48:23.304Z,30.83
2018-07-21T13:50:50.415Z,31.16
2018-07-21T13:53:17.593Z,31.25
2018-07-21T13:55:44.760Z,31.78
2018-07-21T13:58:11.876Z,32.24
2018-07-21T14:00:39.035Z,32.32
2018-07-21T14:03:06.252Z,31.81
2018-07-21T14:05:33.453Z,31.32
2018-07-21T14:08:00.632Z,31.44
2018-07-21T14:10:27.739Z,31.36
2018-07-21T14:12:54.867Z,31.80
2018-07-21T14:15:22.061Z,32.36
2018-07-21T14:17:49.224Z,32.77
2018-07-21T14:20:16.507Z,32.67
2018-07-21T14:22:43.669Z,32.71
2018-07-21T14:25:10.804Z,32.11
2018-07-21T14:27:37.927Z,32.26
2018-07-21T14:30:06.348Z,32.87
2018-07-21T14:32:33.490Z,32.70
2018-07-21T14:35:00.635Z,33.28
2018-07-21T14:37:27.812Z,33.18
2018-07-21T14:39:54.957Z,33.42
2018-07-21T14:42:22.073Z,33.37
2018-07-21T14:44:49.319Z,33.49
2018-07-21T14:47:16.472Z,33.01
2018-07-21T14:49:43.598Z,32.87
2018-07-21T14:52:10.775Z,32.91
2018-07-21T14:54:37.958Z,32.78
2018-07-21T14:57:05.115Z,32.79
2018-07-21T14:59:32.288Z,32.78
2018-07-21T15:01:59.407Z,32.37
2018-07-21T15:04:26.528Z,32.72
2018-07-21T15:06:53.712Z,33.27
2018-07-21T15:09:20.862Z,33.51
2018-07-21T15:11:47.975Z,33.37
2018-07-21T15:14:15.163Z,34.73
2018-07-21T15:16:42.332Z,37.13
2018-07-21T15:19:09.531Z,38.93
2018-07-21T15:21:36.717Z,40.49
2018-07-21T15:24:03.889Z,40.33
2018-07-21T15:26:31.012Z,41.55
2018-07-21T15:28:58.236Z,42.47
2018-07-21T15:31:25.364Z,41.83
2018-07-21T15:33:52.518Z,41.17
2018-07-21T15:36:19.701Z,41.19
2018-07-21T15:38:46.829Z,42.04
2018-07-21T15:41:14.001Z,41.55
2018-07-21T15:43:41.257Z,41.54
2018-07-21T15:46:08.405Z,40.54
2018-07-21T15:48:35.511Z,41.90
2018-07-21T15:51:02.756Z,42.76
2018-07-21T15:53:29.941Z,42.73
2018-07-21T15:55:57.076Z,42.98
2018-07-21T15:58:24.263Z,42.09
2018-07-21T16:00:51.420Z,42.14
2018-07-21T16:03:18.533Z,42.02
2018-07-21T16:05:45.719Z,42.22
2018-07-21T16:08:12.816Z,41.07
2018-07-21T16:10:39.971Z,41.81
2018-07-21T16:13:07.280Z,40.98
2018-07-21T16:15:34.463Z,40.17
2018-07-21T16:18:01.596Z,39.43
2018-07-21T16:20:29.618Z,39.51
2018-07-21T16:22:56.807Z,38.74
2018-07-21T16:25:23.964Z,37.57
2018-07-21T16:27:51.158Z,38.27
2018-07-21T16:30:18.316Z,37.97
2018-07-21T16:32:45.432Z,37.76
2018-07-21T16:35:12.580Z,36.88
2018-07-21T16:37:39.712Z,36.88
2018-07-21T16:40:06.900Z,36.17
2018-07-21T16:42:34.083Z,36.15
2018-07-21T16:45:01.200Z,36.53
2018-07-21T16:47:28.321Z,36.82
2018-07-21T16:49:55.483Z,36.38
2018-07-21T16:52:22.616Z,36.58
2018-07-21T16:54:49.739Z,35.74
2018-07-21T16:57:16.896Z,35.43
2018-07-21T16:59:43.986Z,34.81
2018-07-21T17:02:11.087Z,34.31
2018-07-21T17:04:38.227Z,33.41
2018-07-21T17:07:05.360Z,32.53
2018-07-21T17:09:32.873Z,31.67
2018-07-21T17:12:00.129Z,31.00
2018-07-21T17:14:27.342Z,30.61
2018-07-21T17:16:54.463Z,30.29
2018-07-21T17:19:21.701Z,30.09
2018-07-21T17:21:48.896Z,29.54
2018-07-21T17:24:16.004Z,29.16
2018-07-21T17:26:43.204Z,29.37
2018-07-21T17:29:10.350Z,29.16
2018-07-21T17:31:37.502Z,29.05
2018-07-21T17:34:04.676Z,28.78
2018-07-21T17:36:31.824Z,28.69
2018-07-21T17:38:58.930Z,28.53
2018-07-21T17:41:26.223Z,28.41
2018-07-21T17:43:53.405Z,28.11
2018-07-21T17:46:20.520Z,27.93
2018-07-21T17:48:47.812Z,27.75
2018-07-21T17:51:14.987Z,27.67
2018-07-21T17:53:42.092Z,27.48
2018-07-21T17:56:10.684Z,27.40
2018-07-21T17:58:37.825Z,27.39
2018-07-21T18:01:04.999Z,27.31
2018-07-21T18:03:32.177Z,27.21
2018-07-21T18:05:59.355Z,27.07
2018-07-21T18:08:26.487Z,26.96
2018-07-21T18:10:53.672Z,26.82
2018-07-21T18:13:20.795Z,26.66
2018-07-21T18:15:47.929Z,26.43
2018-07-21T18:18:15.085Z,26.33
2018-07-21T18:20:42.270Z,26.22
2018-07-21T18:23:09.449Z,26.02
2018-07-21T18:25:36.689Z,25.92
2018-07-21T18:28:03.968Z,25.71
2018-07-21T18:30:31.104Z,25.52
2018-07-21T18:32:58.304Z,25.34
2018-07-21T18:35:25.450Z,25.16
2018-07-21T18:37:52.585Z,24.98
2018-07-21T18:40:19.765Z,24.74
2018-07-21T18:42:46.911Z,24.57
2018-07-21T18:45:14.094Z,24.44
2018-07-21T18:47:41.245Z,24.26
2018-07-21T18:50:08.404Z,24.15
2018-07-21T18:52:35.545Z,23.97
2018-07-21T18:55:02.789Z,23.77
2018-07-21T18:57:29.920Z,23.55
2018-07-21T18:59:57.041Z,23.40
2018-07-21T19:02:24.208Z,23.28
2018-07-21T19:04:51.335Z,23.09
2018-07-21T19:07:18.495Z,22.98
2018-07-21T19:09:45.661Z,22.86
2018-07-21T19:12:18.615Z,22.71
2018-07-21T19:14:45.826Z,22.61
2018-07-21T19:17:12.872Z,22.45
2018-07-21T19:19:45.835Z,22.32
2018-07-21T19:22:12.965Z,22.19
2018-07-21T19:24:40.124Z,22.06
2018-07-21T19:27:12.912Z,21.93
2018-07-21T19:29:40.057Z,21.78
2018-07-21T19:32:13.022Z,21.68
2018-07-21T19:34:40.145Z,21.61
2018-07-21T19:37:13.151Z,21.49
2018-07-21T19:39:40.268Z,21.37
2018-07-21T19:42:07.464Z,21.27
2018-07-21T19:44:34.657Z,21.21
2018-07-21T19:47:01.781Z,21.11
2018-07-21T19:49:28.889Z,21.02
2018-07-21T19:51:56.113Z,20.94
2018-07-21T19:54:23.233Z,20.84
2018-07-21T19:56:50.415Z,20.76
2018-07-21T19:59:17.635Z,20.72
2018-07-21T20:01:44.767Z,20.65
2018-07-21T20:04:11.893Z,20.58
2018-07-21T20:06:39.060Z,20.49
2018-07-21T20:09:06.661Z,20.42
2018-07-21T20:11:33.865Z,20.37
2018-07-21T20:14:01.861Z,20.31
2018-07-21T20:16:29.063Z,20.25
2018-07-21T20:18:56.177Z,20.18
2018-07-21T20:21:23.413Z,20.11
2018-07-21T20:23:50.517Z,20.07
2018-07-21T20:26:17.723Z,20.01
2018-07-21T20:28:44.966Z,19.98
2018-07-21T20:31:12.081Z,19.99
2018-07-21T20:33:39.203Z,19.94
2018-07-21T20:36:06.456Z,19.91
2018-07-21T20:38:33.594Z,19.89
2018-07-21T20:41:00.792Z,19.84
2018-07-21T20:43:27.993Z,19.82
2018-07-21T20:45:55.132Z,19.84
2018-07-21T20:48:22.291Z,19.84
2018-07-21T20:50:49.456Z,19.86
2018-07-21T20:53:16.606Z,19.91
2018-07-21T20:55:43.755Z,19.89
2018-07-21T20:58:10.991Z,19.90
2018-07-21T21:00:38.156Z,19.90
2018-07-21T21:03:05.329Z,19.92
2018-07-21T21:05:32.524Z,19.95
2018-07-21T21:07:59.635Z,20.00
2018-07-21T21:10:26.753Z,20.04
2018-07-21T21:12:54.023Z,20.03
2018-07-21T21:15:21.196Z,20.09
2018-07-21T21:17:48.382Z,20.12
2018-07-21T21:20:15.569Z,20.13
2018-07-21T21:22:42.828Z,20.17
2018-07-21T21:25:09.908Z,20.21
2018-07-21T21:27:37.215Z,20.27
2018-07-21T21:30:04.462Z,20.29
2018-07-21T21:32:31.589Z,20.33
2018-07-21T21:34:58.772Z,20.33
2018-07-21T21:37:25.904Z,20.32
2018-07-21T21:39:53.011Z,20.34
2018-07-21T21:42:20.288Z,20.35
2018-07-21T21:44:47.381Z,20.37
2018-07-21T21:47:14.544Z,20.39
2018-07-21T21:49:41.736Z,20.39
2018-07-21T21:52:08.843Z,20.43
2018-07-21T21:54:36.029Z,20.45
2018-07-21T21:57:03.254Z,20.46
2018-07-21T21:59:30.390Z,20.47
2018-07-21T22:01:57.497Z,20.48
2018-07-21T22:04:24.668Z,20.51
2018-07-21T22:06:51.809Z,20.48
2018-07-21T22:09:18.939Z,20.46
2018-07-21T22:11:46.143Z,20.51
2018-07-21T22:14:13.296Z,20.53
2018-07-21T22:16:40.464Z,20.63
2018-07-21T22:19:07.639Z,20.72
2018-07-21T22:21:34.784Z,20.63
2018-07-21T22:24:01.957Z,20.65
2018-07-21T22:26:29.238Z,20.69
2018-07-21T22:28:56.420Z,20.71
2018-07-21T22:31:23.577Z,20.68
2018-07-21T22:33:50.829Z,20.63
2018-07-21T22:36:17.948Z,20.63
2018-07-21T22:38:45.073Z,20.65
2018-07-21T22:41:12.324Z,20.63
2018-07-21T22:43:39.428Z,20.64
2018-07-21T22:46:06.612Z,20.58
2018-07-21T22:48:33.800Z,20.63
2018-07-21T22:51:00.895Z,20.64
2018-07-21T22:53:28.012Z,20.56
2018-07-21T22:55:55.194Z,20.56
2018-07-21T22:58:22.299Z,20.47
2018-07-21T23:00:49.569Z,20.44
2018-07-21T23:03:16.816Z,20.43
2018-07-21T23:05:43.948Z,20.43
2018-07-21T23:08:11.227Z,20.39
2018-07-21T23:10:38.385Z,20.37
2018-07-21T23:13:05.756Z,20.31
2018-07-21T23:15:32.771Z,20.30
2018-07-21T23:17:59.911Z,20.21
2018-07-21T23:20:27.067Z,20.28
2018-07-21T23:22:54.220Z,20.25
2018-07-21T23:25:21.400Z,20.17
2018-07-21T23:27:48.542Z,20.13
2018-07-21T23:30:15.781Z,20.07
2018-07-21T23:32:43.035Z,20.05
2018-07-21T23:35:10.164Z,19.98
2018-07-21T23:37:37.359Z,19.96
2018-07-21T23:40:04.987Z,19.92
2018-07-21T23:42:32.124Z,19.87
2018-07-21T23:44:59.257Z,19.85
2018-07-21T23:47:26.417Z,19.81
2018-07-21T23:49:53.528Z,19.76
2018-07-21T23:52:20.687Z,19.73
2018-07-21T23:54:47.839Z,19.68
2018-07-21T23:57:14.995Z,19.65
2018-07-21T23:59:42.108Z,19.61
